Time;durP1;ratioP1;P1;durP2;ratioP2;P2;SDS_P1;SDS_P2;PMS_P1;PMS_P2;Temp;Humidity;BMP_temperature;BMP_pressure;BME280_temperature;BME280_humidity;BME280_pressure;Samples;Min_cycle;Max_cycle;Signal;HPM_P1;HPM_P2
2021/11/23 00:04:00;;;;;;;1999.90;999.90;;;;;;;2.39;71.83;102192.91;15619609;28;20127;-70
2021/11/23 00:11:34;;;;;;;;;;;;;;;2.51;71.82;102188.22;15626281;28;20081;-70
2021/11/23 00:19:07;;;;;;;1999.90;999.90;;;;;;;2.41;72.08;102179.75;15602451;28;20004;-70
2021/11/23 00:26:41;;;;;;;1999.90;999.90;;;;;;;2.49;71.65;102182.09;15654534;28;20091;-70
2021/11/23 00:34:14;;;;;;;1999.90;999.90;;;;;;;2.55;72.38;102172.88;15626389;28;20041;-71
2021/11/23 00:41:49;;;;;;;1999.90;999.90;;;;;;;2.66;73.37;102167.56;15623962;28;20488;-70
2021/11/23 00:49:21;;;;;;;1999.90;999.90;;;;;;;2.84;73.59;102175.66;15614889;28;20080;-71
2021/11/23 00:56:56;;;;;;;1999.90;999.90;;;;;;;2.66;75.39;102165.63;15641823;28;20147;-71
2021/11/23 01:04:28;;;;;;;1999.90;999.90;;;;;;;2.77;75.25;102150.13;15656997;28;20049;-71
2021/11/23 01:12:03;;;;;;;1999.90;999.90;;;;;;;2.86;75.04;102140.38;15623455;28;20473;-71
2021/11/23 01:19:36;;;;;;;1999.90;999.90;;;;;;;3.05;74.46;102130.81;15635543;28;20142;-71
2021/11/23 01:27:10;;;;;;;1999.90;999.90;;;;;;;3.03;74.08;102134.91;15652726;28;20052;-71
2021/11/23 01:34:43;;;;;;;1999.90;999.90;;;;;;;2.98;74.24;102127.38;15598382;28;20386;-71
2021/11/23 01:42:17;;;;;;;1999.90;999.90;;;;;;;3.05;73.33;102124.47;15637518;28;20037;-70
2021/11/23 01:49:50;;;;;;;1999.90;999.90;;;;;;;2.90;73.22;102127.78;15641437;28;20516;-71
2021/11/23 01:57:25;;;;;;;1999.90;999.90;;;;;;;2.87;73.68;102128.28;15631326;28;20151;-71
2021/11/23 02:04:58;;;;;;;1999.90;999.90;;;;;;;2.72;74.27;102106.78;15650630;28;20071;-71
2021/11/23 02:12:34;;;;;;;1999.90;999.90;;;;;;;2.82;74.71;102122.69;15606694;28;20053;-70
2021/11/23 02:20:12;;;;;;;1999.90;999.90;;;;;;;2.98;73.93;102126.53;15642962;28;20056;-70
2021/11/23 02:27:46;;;;;;;1999.90;999.90;;;;;;;2.91;74.06;102121.16;15612011;28;20069;-71
2021/11/23 02:35:21;;;;;;;1999.90;999.90;;;;;;;3.03;73.52;102105.41;15609470;28;20155;-71
2021/11/23 02:42:54;;;;;;;1999.90;999.90;;;;;;;2.75;74.53;102092.50;15641291;28;20045;-72
2021/11/23 02:50:29;;;;;;;1999.90;999.90;;;;;;;2.72;74.86;102104.03;15617764;28;20358;-70
2021/11/23 02:58:05;;;;;;;1999.90;999.90;;;;;;;2.65;75.04;102097.81;15621410;28;20045;-71
2021/11/23 03:05:40;;;;;;;1999.90;999.90;;;;;;;2.77;74.37;102093.06;15645616;28;20045;-71
2021/11/23 03:13:12;;;;;;;1999.90;999.90;;;;;;;2.68;75.04;102088.22;15609373;28;20110;-70
2021/11/23 03:20:47;;;;;;;;;;;;;;;2.93;74.58;102082.34;15632987;28;20045;-70
2021/11/23 03:28:20;;;;;;;1999.90;999.90;;;;;;;2.97;75.09;102070.56;15607260;28;20344;-70
2021/11/23 03:35:55;;;;;;;1999.90;999.90;;;;;;;3.31;75.30;102068.63;15609693;28;20041;-71
2021/11/23 03:43:27;;;;;;;1999.90;999.90;;;;;;;3.59;75.06;102072.38;15609671;28;20144;-70
2021/11/23 03:51:02;;;;;;;1999.90;999.90;;;;;;;3.61;75.57;102073.78;15605994;28;20037;-71
2021/11/23 03:58:35;;;;;;;1999.90;999.90;;;;;;;3.81;74.76;102077.94;15666347;28;20048;-71
2021/11/23 04:06:09;;;;;;;1999.90;999.90;;;;;;;3.99;74.98;102072.94;15623030;28;20254;-71
2021/11/23 04:13:43;;;;;;;1999.90;999.90;;;;;;;4.10;75.59;102073.06;15623127;28;20474;-71
2021/11/23 04:21:18;;;;;;;1999.90;999.90;;;;;;;4.27;75.29;102071.06;15641718;22;20132;-65
2021/11/23 04:28:50;;;;;;;1999.90;999.90;;;;;;;4.38;75.94;102064.59;15717947;28;20053;-66
2021/11/23 04:36:25;;;;;;;1999.90;999.90;;;;;;;4.06;77.46;102042.34;15665345;28;20056;-64
2021/11/23 04:43:57;;;;;;;1999.90;999.90;;;;;;;4.34;78.19;102039.38;15628714;28;20044;-64
2021/11/23 04:51:32;;;;;;;1999.90;999.90;;;;;;;4.55;79.05;102037.66;15673055;28;20139;-64
2021/11/23 04:59:05;;;;;;;1999.90;999.90;;;;;;;4.53;79.22;102023.28;15642047;28;20155;-64
2021/11/23 05:06:39;;;;;;;1999.90;999.90;;;;;;;4.80;79.68;102027.97;15653830;28;20619;-65
2021/11/23 05:14:12;;;;;;;1999.90;999.90;;;;;;;5.00;78.71;102021.75;15657196;28;20664;-65
2021/11/23 05:21:46;;;;;;;1999.90;999.90;;;;;;;5.06;79.20;102026.25;15661071;28;20037;-64
2021/11/23 05:29:19;;;;;;;1999.90;999.90;;;;;;;5.11;79.59;102018.84;15661125;28;20052;-63
2021/11/23 05:36:53;;;;;;;1999.90;999.90;;;;;;;5.29;80.59;102023.09;15662417;28;20444;-65
2021/11/23 05:44:26;;;;;;;1999.90;999.90;;;;;;;5.56;80.71;102036.03;15676528;28;20049;-63
2021/11/23 05:52:01;;;;;;;1999.90;999.90;;;;;;;5.97;79.49;102042.66;15646233;28;20037;-64
2021/11/23 05:59:34;;;;;;;1999.90;999.90;;;;;;;6.03;79.75;102052.63;15667919;28;20124;-65
2021/11/23 06:07:08;;;;;;;1999.90;999.90;;;;;;;6.29;79.61;102048.03;15645590;28;20063;-65
2021/11/23 06:14:41;;;;;;;1999.90;999.90;;;;;;;5.95;82.38;102050.41;15661552;28;20053;-65
2021/11/23 06:22:15;;;;;;;1999.90;999.90;;;;;;;6.16;82.05;102065.19;15668551;28;20049;-66
2021/11/23 06:29:48;;;;;;;1999.90;999.90;;;;;;;6.43;81.57;102059.44;15636388;28;20540;-65
2021/11/23 06:37:23;;;;;;;1999.90;999.90;;;;;;;6.20;83.13;102066.31;15677744;28;20144;-65
2021/11/23 06:44:56;;;;;;;1999.90;999.90;;;;;;;6.23;83.38;102065.75;15637871;28;20049;-64
2021/11/23 06:52:30;;;;;;;1999.90;999.90;;;;;;;6.66;82.87;102095.00;15677745;28;20509;-65
2021/11/23 07:00:05;;;;;;;1999.90;999.90;;;;;;;6.56;83.38;102108.84;15677575;28;20492;-67
2021/11/23 07:07:40;;;;;;;1999.90;999.90;;;;;;;6.78;82.34;102114.19;15669341;28;20041;-67
2021/11/23 07:15:13;;;;;;;1999.90;999.90;;;;;;;6.60;83.36;102124.69;15669691;28;20051;-65
2021/11/23 07:22:51;;;;;;;1999.90;999.90;;;;;;;6.68;83.10;102123.34;15673763;28;20033;-66
2021/11/23 07:30:24;;;;;;;1999.90;999.90;;;;;;;6.72;83.21;102127.22;15677339;28;20591;-64
2021/11/23 07:37:59;;;;;;;1999.90;999.90;;;;;;;6.63;84.30;102143.53;15665806;28;20052;-68
2021/11/23 07:45:31;;;;;;;1999.90;999.90;;;;;;;7.03;82.59;102155.88;15671887;28;20041;-59
2021/11/23 07:53:06;;;;;;;1999.90;999.90;;;;;;;7.02;83.11;102147.81;15691342;28;20049;-62
2021/11/23 08:00:39;;;;;;;1999.90;999.90;;;;;;;7.03;83.19;102160.59;15691104;28;20071;-61
2021/11/23 08:08:14;;;;;;;1999.90;999.90;;;;;;;6.83;84.57;102155.81;15684149;28;20044;-60
2021/11/23 08:15:47;;;;;;;1999.90;999.90;;;;;;;7.15;83.53;102155.63;15685453;28;20537;-64
2021/11/23 08:23:21;;;;;;;1999.90;999.90;;;;;;;7.06;84.18;102162.81;15670247;28;20465;-64
2021/11/23 08:30:58;;;;;;;1999.90;999.90;;;;;;;6.99;85.02;102162.25;15671256;28;20052;-64
2021/11/23 08:38:33;;;;;;;1999.90;999.90;;;;;;;7.30;84.17;102163.16;15668418;28;20443;-64
2021/11/23 08:46:06;;;;;;;1999.90;999.90;;;;;;;7.15;84.31;102161.16;15685907;28;20057;-65
2021/11/23 08:53:41;;;;;;;1999.90;999.90;;;;;;;7.25;84.07;102163.97;15677420;28;20421;-64
2021/11/23 09:01:14;;;;;;;1999.90;999.90;;;;;;;7.34;83.99;102162.31;15680843;28;20052;-64
2021/11/23 09:08:53;;;;;;;1999.90;999.90;;;;;;;7.43;83.92;102182.03;15673551;28;20076;-66
2021/11/23 09:16:26;;;;;;;1999.90;999.90;;;;;;;7.50;83.84;102168.69;15670991;28;21435;-65
2021/11/23 09:24:02;;;;;;;1999.90;999.90;;;;;;;7.64;84.61;102191.22;15677694;28;20044;-64
2021/11/23 09:31:35;;;;;;;1999.90;999.90;;;;;;;7.60;84.52;102196.47;15680877;28;20387;-65
2021/11/23 09:39:10;;;;;;;1999.90;999.90;;;;;;;7.66;84.20;102208.44;15678309;28;20072;-66
2021/11/23 09:46:42;;;;;;;1999.90;999.90;;;;;;;7.59;84.75;102205.94;15681656;28;20528;-66
2021/11/23 09:54:17;;;;;;;1999.90;999.90;;;;;;;8.11;83.67;102193.66;15681989;28;20113;-66
2021/11/23 10:01:52;;;;;;;1999.90;999.90;;;;;;;7.98;84.02;102203.44;15683007;28;20204;-66
2021/11/23 10:09:35;;;;;;;1999.90;999.90;;;;;;;8.37;82.17;102212.00;15681847;28;20450;-66
2021/11/23 10:17:26;;;;;;;1999.90;999.90;;;;;;;8.06;84.23;102202.88;15681271;28;20037;-63
2021/11/23 10:25:04;;;;;;;1999.90;999.90;;;;;;;8.38;83.60;102208.13;15681859;28;20061;-66
2021/11/23 10:32:42;;;;;;;1999.90;999.90;;;;;;;8.26;83.48;102202.00;15685098;28;20115;-68
2021/11/23 10:40:19;;;;;;;1999.90;999.90;;;;;;;8.64;82.25;102202.44;15678925;28;20045;-66
2021/11/23 10:47:53;;;;;;;1999.90;999.90;;;;;;;8.46;82.93;102194.75;15681536;28;20501;-65
2021/11/23 10:55:31;;;;;;;1999.90;999.90;;;;;;;8.44;82.66;102189.47;15679634;28;20056;-66
2021/11/23 11:03:04;;;;;;;1999.90;999.90;;;;;;;8.36;83.50;102195.63;15679217;28;20413;-66
2021/11/23 11:10:39;;;;;;;1999.90;999.90;;;;;;;8.59;83.00;102180.22;15677187;28;20036;-66
2021/11/23 11:18:16;;;;;;;1999.90;999.90;;;;;;;8.89;82.13;102182.03;15667138;28;20049;-65
2021/11/23 11:26:16;;;;;;;1999.90;999.90;;;;;;;8.89;82.39;102174.53;15648816;28;20114;-61
2021/11/23 11:33:49;;;;;;;1999.90;999.90;;;;;;;8.86;82.80;102157.56;15676688;28;20041;-64
2021/11/23 11:41:39;;;;;;;1999.90;999.90;;;;;;;8.76;82.78;102158.47;15673036;28;20041;-64
2021/11/23 11:49:11;;;;;;;1999.90;999.90;;;;;;;9.00;81.96;102152.19;15655861;28;20045;-67
2021/11/23 11:56:54;;;;;;;1999.90;999.90;;;;;;;9.20;81.07;102150.09;15665129;28;20059;-69
2021/11/23 12:04:31;;;;;;;1999.90;999.90;;;;;;;9.26;80.76;102154.50;15675674;28;20071;-68
2021/11/23 12:12:43;;;;;;;1999.90;999.90;;;;;;;9.51;79.94;102149.88;15659420;28;20052;-68
2021/11/23 12:20:33;;;;;;;1999.90;999.90;;;;;;;9.28;80.69;102136.69;15674259;28;20045;-68
2021/11/23 12:28:09;;;;;;;1999.90;999.90;;;;;;;9.61;79.24;102149.78;15675227;28;20119;-67
2021/11/23 12:35:43;;;;;;;1999.90;999.90;;;;;;;9.27;80.32;102144.19;15681991;28;20048;-67
2021/11/23 12:43:16;;;;;;;1999.90;999.90;;;;;;;9.24;80.35;102153.13;15686276;28;20045;-67
2021/11/23 12:50:50;;;;;;;1999.90;999.90;;;;;;;9.44;79.85;102164.13;15680282;28;20073;-67
2021/11/23 12:58:34;;;;;;;1999.90;999.90;;;;;;;9.31;79.94;102164.78;15684747;28;20496;-65
2021/11/23 13:06:10;;;;;;;1999.90;999.90;;;;;;;9.19;80.64;102161.53;15647764;28;20403;-65
2021/11/23 13:13:43;;;;;;;1999.90;999.90;;;;;;;9.49;79.72;102174.44;15630446;28;20128;-66
2021/11/23 13:21:19;;;;;;;1999.90;999.90;;;;;;;9.49;79.83;102164.13;15680873;28;20041;-68
2021/11/23 13:29:00;;;;;;;1999.90;999.90;;;;;;;9.78;79.32;102166.91;15642832;28;20041;-67
2021/11/23 13:36:38;;;;;;;1999.90;999.90;;;;;;;9.88;78.14;102163.19;15680256;28;20075;-68
2021/11/23 13:44:13;;;;;;;1999.90;999.90;;;;;;;9.61;79.19;102154.53;15664105;28;20042;-69
2021/11/23 13:52:04;;;;;;;1999.90;999.90;;;;;;;9.55;78.40;102160.13;15620845;28;20048;-68
2021/11/23 13:59:37;;;;;;;1999.90;999.90;;;;;;;9.71;78.88;102160.03;15619035;28;20087;-68
2021/11/23 14:07:14;;;;;;;1999.90;999.90;;;;;;;9.80;78.33;102156.31;15674202;28;20047;-68
2021/11/23 14:15:16;;;;;;;1999.90;999.90;;;;;;;9.65;79.26;102173.16;15663542;28;20041;-68
2021/11/23 14:22:57;;;;;;;1999.90;999.90;;;;;;;9.70;79.46;102172.31;15680797;28;20579;-68
2021/11/23 14:30:31;;;;;;;1999.90;999.90;;;;;;;9.41;80.50;102169.47;15678599;28;20037;-68
2021/11/23 14:38:06;;;;;;;1999.90;999.90;;;;;;;9.71;79.32;102180.38;15655915;28;20048;-68
2021/11/23 14:45:38;;;;;;;1999.90;999.90;;;;;;;9.37;80.42;102171.97;15658715;28;20037;-66
2021/11/23 14:53:13;;;;;;;1999.90;999.90;;;;;;;9.51;79.98;102177.75;15656154;28;20059;-68
2021/11/23 15:00:46;;;;;;;1999.90;999.90;;;;;;;9.65;79.49;102183.47;15670982;28;20048;-69
2021/11/23 15:08:20;;;;;;;1999.90;999.90;;;;;;;9.48;80.17;102176.38;15675239;28;20413;-71
2021/11/23 15:15:53;;;;;;;1999.90;999.90;;;;;;;9.39;80.25;102172.53;15663042;28;20130;-73
2021/11/23 15:23:28;;;;;;;1999.90;999.90;;;;;;;9.77;79.65;102179.19;15657054;28;20049;-67
2021/11/23 15:31:08;;;;;;;1999.90;999.90;;;;;;;9.83;78.75;102171.63;15669399;28;20044;-70
2021/11/23 15:38:43;;;;;;;1999.90;999.90;;;;;;;9.79;78.10;102185.28;15676330;28;20052;-67
2021/11/23 15:46:16;;;;;;;1999.90;999.90;;;;;;;9.92;78.39;102172.66;15672463;28;20041;-69
2021/11/23 15:53:52;;;;;;;1999.90;999.90;;;;;;;9.72;78.92;102168.09;15671497;28;20037;-67
2021/11/23 16:01:25;;;;;;;1999.90;999.90;;;;;;;9.34;79.78;102180.09;15675686;28;20079;-67
2021/11/23 16:09:00;;;;;;;1999.90;999.90;;;;;;;9.62;79.61;102179.34;15671792;28;20065;-67
2021/11/23 16:16:33;;;;;;;1999.90;999.90;;;;;;;9.61;79.24;102177.66;15681772;28;20530;-68
2021/11/23 16:24:07;;;;;;;1999.90;999.90;;;;;;;9.71;78.49;102177.59;15660722;28;20045;-70
2021/11/23 16:31:40;;;;;;;1999.90;999.90;;;;;;;9.42;79.19;102171.97;15682660;22;20071;-60
2021/11/23 16:39:14;;;;;;;1999.90;999.90;;;;;;;9.59;78.92;102176.28;15645257;28;20280;-60
2021/11/23 16:46:47;;;;;;;1999.90;999.90;;;;;;;9.57;78.09;102184.09;15631578;28;20052;-58
2021/11/23 16:54:21;;;;;;;1999.90;999.90;;;;;;;9.63;78.40;102175.41;15669495;28;20148;-60
2021/11/23 17:01:54;;;;;;;1999.90;999.90;;;;;;;9.60;78.22;102183.53;15676203;28;20109;-59
2021/11/23 17:09:33;;;;;;;1999.90;999.90;;;;;;;9.42;78.94;102180.31;15673873;28;20072;-58
2021/11/23 17:17:06;;;;;;;1999.90;999.90;;;;;;;9.33;79.17;102175.66;15663039;28;20048;-59
2021/11/23 17:24:41;;;;;;;1999.90;999.90;;;;;;;9.49;78.21;102180.00;15657979;28;20064;-59
2021/11/23 17:32:14;;;;;;;1999.90;999.90;;;;;;;9.52;78.41;102171.88;15668740;28;20179;-59
2021/11/23 17:39:50;;;;;;;1999.90;999.90;;;;;;;9.37;79.19;102166.41;15667553;28;20056;-60
2021/11/23 17:47:29;;;;;;;1999.90;999.90;;;;;;;9.28;79.47;102175.69;15673377;28;20060;-60
2021/11/23 17:55:04;;;;;;;1999.90;999.90;;;;;;;9.35;79.25;102178.97;15653434;28;20359;-60
2021/11/23 18:02:39;;;;;;;1999.90;999.90;;;;;;;9.34;79.03;102171.72;15674985;28;20568;-59
2021/11/23 18:10:17;;;;;;;1999.90;999.90;;;;;;;9.55;78.63;102179.66;15651233;28;20073;-61
2021/11/23 18:17:56;;;;;;;1999.90;999.90;;;;;;;9.33;79.35;102178.44;15674186;28;20052;-58
2021/11/23 18:25:31;;;;;;;1999.90;999.90;;;;;;;9.19;79.68;102167.13;15640450;28;20053;-59
2021/11/23 18:33:05;;;;;;;1999.90;999.90;;;;;;;9.40;79.10;102171.41;15670698;28;20438;-64
2021/11/23 18:40:40;;;;;;;1999.90;999.90;;;;;;;9.26;79.50;102171.22;15661717;28;20060;-63
2021/11/23 18:48:13;;;;;;;1999.90;999.90;;;;;;;9.54;78.71;102158.47;15674109;28;20095;-62
2021/11/23 18:55:48;;;;;;;1999.90;999.90;;;;;;;9.24;79.62;102162.31;15660676;28;20501;-62
2021/11/23 19:03:22;;;;;;;1999.90;999.90;;;;;;;9.58;78.83;102166.25;15673584;28;20079;-63
2021/11/23 19:10:56;;;;;;;;;;;;;;;9.76;78.42;102182.28;15661594;28;20041;-62
2021/11/23 19:18:29;;;;;;;1999.90;999.90;;;;;;;9.41;79.54;102173.09;15669152;28;20019;-62
2021/11/23 19:26:03;;;;;;;1999.90;999.90;;;;;;;9.39;80.05;102163.34;15670419;28;20505;-63
2021/11/23 19:33:36;;;;;;;1999.90;999.90;;;;;;;9.62;78.90;102161.78;15637256;28;20558;-60
2021/11/23 19:41:12;;;;;;;1999.90;999.90;;;;;;;9.56;79.15;102163.75;15632617;28;20452;-61
2021/11/23 19:48:45;;;;;;;1999.90;999.90;;;;;;;9.34;80.27;102161.41;15682776;28;20068;-62
2021/11/23 19:56:21;;;;;;;1999.90;999.90;;;;;;;9.20;80.97;102154.84;15658971;28;20136;-63
2021/11/23 20:03:54;;;;;;;1999.90;999.90;;;;;;;9.37;80.81;102151.66;15657722;28;20446;-62
2021/11/23 20:11:29;;;;;;;1999.90;999.90;;;;;;;9.61;79.26;102160.13;15657793;28;20443;-60
2021/11/23 20:19:02;;;;;;;1999.90;999.90;;;;;;;9.70;78.66;102164.78;15666604;28;20041;-61
2021/11/23 20:26:38;;;;;;;1999.90;999.90;;;;;;;9.57;79.32;102173.78;15668460;28;20045;-60
2021/11/23 20:34:11;;;;;;;1999.90;999.90;;;;;;;9.53;79.08;102181.91;15653944;28;20069;-60
2021/11/23 20:41:45;;;;;;;1999.90;999.90;;;;;;;9.55;79.37;102164.88;15691592;28;20041;-59
2021/11/23 20:49:18;;;;;;;1999.90;999.90;;;;;;;9.46;79.91;102164.66;15661671;28;20045;-62
2021/11/23 20:56:52;;;;;;;1999.90;999.90;;;;;;;9.45;80.59;102164.97;15675281;28;20053;-63
2021/11/23 21:04:25;;;;;;;1999.90;999.90;;;;;;;9.74;78.96;102154.69;15678901;28;20083;-61
2021/11/23 21:12:00;;;;;;;1999.90;999.90;;;;;;;9.87;78.84;102146.75;15670309;28;20535;-60
2021/11/23 21:19:33;;;;;;;1999.90;999.90;;;;;;;9.87;78.80;102141.19;15643281;28;20110;-58
2021/11/23 21:27:10;;;;;;;1999.90;999.90;;;;;;;9.76;79.35;102143.25;15677702;28;20049;-60
2021/11/23 21:34:43;;;;;;;1999.90;999.90;;;;;;;9.61;79.97;102137.81;15664004;28;20056;-60
2021/11/23 21:42:17;;;;;;;1999.90;999.90;;;;;;;9.50;80.92;102137.91;15645010;28;20482;-61
2021/11/23 21:49:53;;;;;;;1999.90;999.90;;;;;;;9.63;80.26;102138.34;15672276;28;20111;-62
2021/11/23 21:57:27;;;;;;;1999.90;999.90;;;;;;;9.66;79.86;102144.16;15669093;28;20053;-59
2021/11/23 22:05:00;;;;;;;1999.90;999.90;;;;;;;9.37;81.21;102138.53;15648133;28;20133;-59
2021/11/23 22:12:37;;;;;;;1999.90;999.90;;;;;;;9.65;79.88;102139.72;15650786;28;20120;-59
2021/11/23 22:20:18;;;;;;;1999.90;999.90;;;;;;;9.71;79.54;102138.56;15650274;28;20490;-59
2021/11/23 22:27:53;;;;;;;1999.90;999.90;;;;;;;9.65;79.53;102141.66;15651252;28;20065;-59
2021/11/23 22:35:31;;;;;;;1999.90;999.90;;;;;;;9.38;80.23;102137.44;15658823;28;20065;-60
2021/11/23 22:43:06;;;;;;;1999.90;999.90;;;;;;;9.60;80.16;102137.00;15649204;28;20044;-61
2021/11/23 22:50:39;;;;;;;1999.90;999.90;;;;;;;9.47;81.19;102140.41;15649287;28;20052;-56
2021/11/23 22:58:14;;;;;;;1999.90;999.90;;;;;;;9.76;80.14;102132.91;15655499;28;20097;-57
2021/11/23 23:05:48;;;;;;;1999.90;999.90;;;;;;;9.55;80.73;102137.00;15617165;28;20048;-60
2021/11/23 23:13:22;;;;;;;1999.90;999.90;;;;;;;9.79;80.60;102121.19;15649056;28;20330;-61
2021/11/23 23:20:55;;;;;;;1999.90;999.90;;;;;;;9.51;81.37;102116.44;15640362;28;20237;-58
2021/11/23 23:28:29;;;;;;;1999.90;999.90;;;;;;;9.21;82.22;102110.00;15618417;28;20222;-61
2021/11/23 23:36:02;;;;;;;1999.90;999.90;;;;;;;9.31;81.71;102111.03;15630615;28;20037;-61
2021/11/23 23:43:36;;;;;;;1999.90;999.90;;;;;;;9.27;82.21;102116.34;15670289;28;20041;-58
2021/11/23 23:51:09;;;;;;;1999.90;999.90;;;;;;;9.37;81.67;102115.44;15632580;28;20041;-58
2021/11/23 23:58:43;;;;;;;1999.90;999.90;;;;;;;9.45;81.52;102098.91;15646092;28;20046;-59
